Latest Weather Observations for Maria Island

IDT60801

Issued at 7:31 am EDT Wednesday 28 January 2015 (issued every 30 minutes, with the page automatically refreshed every 10 minutes)

About weather observations | Map of weather stations | Latest weather observations for TAS | Other Formats
Station Details ID: 092124 Name: MARIA ISLAND (POINT LESUEUR) Lat: -42.66 Lon: 148.02 Height: 28.0 m
Data from the previous 72 hours. | See also: Recent months at Maria Island
Date/Time
EDT
Temp
°C
App
Temp
°C
Dew
Point
Rel
Hum
%
Delta-T
°C
Wind Press
QNH
hPa
Press
MSL
hPa
Rain
since 9 am
mm
Dir
 
Spd
km/h
Gust
km/h
Spd
kts
Gust
kts
28/07:30am 11.5 6.7 10.2 92 0.7 SW 26 30 14 16 1022.3 1022.3 1.4
28/07:00am 11.3 4.4 10.4 94 0.5 SSW 37 43 20 23 1021.9 1021.9 1.2
28/06:30am 11.8 5.7 9.9 88 1.0 SSW 32 35 17 19 1021.7 1021.7 0.4
28/05:30am 12.2 6.1 9.6 84 1.3 SSW 32 37 17 20 1021.0 1021.0 0.0
28/05:00am 12.6 5.7 8.9 78 1.8 SSW 35 43 19 23 1020.8 1020.8 0.0
28/04:30am 12.8 6.2 8.5 75 2.1 SSW 33 39 18 21 1020.6 1020.6 0.0
28/04:00am 12.9 6.1 7.6 70 2.6 SSW 33 39 18 21 1020.6 1020.6 0.0
28/03:30am 13.0 6.3 7.2 68 2.8 SW 32 37 17 20 1020.7 1020.7 0.0
28/03:00am 13.3 6.1 7.5 68 2.8 SSW 35 43 19 23 1021.0 1021.0 0.0
28/02:30am 13.3 6.5 7.1 66 3.0 S 32 39 17 21 1021.0 1021.0 0.0
28/02:00am 13.4 6.7 8.0 70 2.7 SSW 33 39 18 21 1021.1 1021.1 0.0
28/01:30am 13.5 6.4 7.9 69 2.8 SSW 35 41 19 22 1021.1 1021.1 0.0
28/01:00am 13.5 6.5 8.6 72 2.4 SSW 35 41 19 22 1021.1 1021.1 0.0
28/12:30am 13.5 7.7 7.9 69 2.8 SSW 28 33 15 18 1021.2 1021.2 0.0
28/12:00am 13.5 7.9 7.1 65 3.1 SSW 26 33 14 18 1021.3 1021.3 0.0
 
Date/Time
EDT
Temp
°C
App
Temp
°C
Dew
Point
Rel
Hum
%
Delta-T
°C
Wind Press
QNH
hPa
Press
MSL
hPa
Rain
since 9 am
mm
Dir
 
Spd
km/h
Gust
km/h
Spd
kts
Gust
kts
27/11:30pm 13.4 6.2 7.6 68 2.8 SSW 35 39 19 21 1021.0 1021.0 0.0
27/11:00pm 13.5 6.0 8.1 70 2.7 SSW 37 44 20 24 1020.9 1020.9 0.0
27/10:30pm 14.0 7.5 8.8 71 2.6 S 33 37 18 20 1020.6 1020.6 0.0
27/10:00pm 14.0 7.6 8.6 70 2.7 SSW 32 37 17 20 1020.5 1020.5 0.0
27/09:30pm 14.2 8.6 8.8 70 2.7 SSW 28 35 15 19 1020.3 1020.3 0.0
27/09:00pm 13.9 7.6 8.9 72 2.5 SSW 32 39 17 21 1020.1 1020.1 0.0
27/08:30pm 14.6 8.4 9.4 71 2.7 SSW 32 37 17 20 1019.6 1019.6 0.0
27/08:00pm 14.8 11.1 9.4 70 2.8 S 19 33 10 18 1019.3 1019.3 0.0
27/07:30pm 14.5 12.9 10.1 75 2.3 ESE 9 11 5 6 1019.1 1019.1 0.0
27/07:00pm 14.3 13.2 10.5 78 2.0 SE 7 9 4 5 1018.8 1018.8 0.0
27/06:30pm 13.9 9.2 10.7 81 1.7 S 26 32 14 17 1018.6 1018.6 0.0
27/06:00pm 15.5 11.7 9.2 66 3.2 SE 19 24 10 13 1018.3 1018.3 0.0
27/05:30pm 15.6 11.6 9.1 65 3.3 SE 20 26 11 14 1018.2 1018.1 0.0
27/05:00pm 16.8 13.5 9.5 62 3.8 SE 17 26 9 14 1018.1 1018.0 0.0
27/04:30pm 16.2 12.2 8.4 60 4.0 E 19 28 10 15 1017.9 1017.8 0.0
27/04:00pm 16.3 12.4 8.5 60 4.0 E 19 24 10 13 1017.8 1017.7 0.0
27/03:30pm 15.5 11.7 9.0 65 3.3 ESE 19 24 10 13 1017.8 1017.7 0.0
27/03:00pm 15.2 11.7 8.7 65 3.3 E 17 24 9 13 1017.7 1017.6 0.0
27/02:30pm 15.6 12.2 9.1 65 3.3 ESE 17 22 9 12 1017.6 1017.5 0.0
27/02:00pm 15.2 11.2 8.4 64 3.4 ESE 19 24 10 13 1017.6 1017.5 0.0
27/01:30pm 16.6 13.2 10.7 68 3.1 ESE 19 24 10 13 1017.6 1017.5 0.0
27/01:00pm 15.3 11.7 9.7 69 2.9 E 19 24 10 13 1017.5 1017.4 0.0
27/12:30pm 15.0 12.1 9.6 70 2.8 ESE 15 22 8 12 1017.5 1017.4 0.0
27/12:00pm 15.4 12.6 10.0 70 2.8 ESE 15 22 8 12 1017.7 1017.6 0.0
27/11:30am 14.7 12.1 9.3 70 2.8 SSE 13 17 7 9 1017.8 1017.7 0.0
27/11:00am 14.5 11.2 9.7 73 2.5 SSE 17 20 9 11 1017.9 1017.8 0.0
27/10:30am 14.3 10.5 9.1 71 2.6 S 19 22 10 12 1017.8 1017.7 0.0
27/10:00am 13.7 10.4 9.6 76 2.1 SSW 17 19 9 10 1017.7 1017.6 0.0
27/09:30am 13.4 9.7 10.0 80 1.8 SSW 20 28 11 15 1017.5 1017.4 0.0
27/09:00am 12.9 7.6 9.9 82 1.5 SSW 28 32 15 17 1017.5 1017.4 7.0
27/08:30am 13.4 10.6 11.3 87 1.1 S 17 20 9 11 1017.2 1017.1 7.0
27/08:00am 13.5 12.3 11.7 89 1.0 SE 9 13 5 7 1016.9 1016.8 7.0
27/07:30am 12.8 11.5 11.4 91 0.7 SE 9 13 5 7 1016.5 1016.4 7.0
27/07:00am 12.8 11.5 11.4 91 0.7 SSE 9 13 5 7 1016.3 1016.2 7.0
27/06:30am 12.5 11.2 11.2 92 0.7 SE 9 13 5 7 1016.1 1016.0 7.0
27/06:00am 12.5 10.1 11.4 93 0.6 SE 15 19 8 10 1016.0 1015.9 7.0
27/05:30am 12.4 9.2 11.3 93 0.6 ESE 19 22 10 12 1015.8 1015.7 7.0
27/05:00am 12.4 9.2 11.3 93 0.6 ESE 19 24 10 13 1015.7 1015.6 7.0
27/04:30am 12.4 10.7 11.1 92 0.7 SE 11 17 6 9 1015.9 1015.8 7.0
27/04:00am 12.5 10.5 11.4 93 0.6 SE 13 17 7 9 1016.2 1016.1 7.0
27/03:30am 12.7 9.6 11.6 93 0.6 S 19 22 10 12 1016.2 1016.1 6.2
27/03:00am 12.5 10.5 11.4 93 0.6 SE 13 17 7 9 1016.5 1016.4 5.4
27/02:30am 12.8 11.2 11.7 93 0.6 S 11 19 6 10 1016.7 1016.6 3.2
27/02:00am 13.2 10.8 11.4 89 1.0 E 15 20 8 11 1016.7 1016.6 0.8
27/01:30am 13.2 10.0 11.4 89 1.0 E 19 24 10 13 1016.6 1016.5 0.4
27/01:00am 13.0 9.6 10.7 86 1.2 E 19 26 10 14 1016.8 1016.7 0.2
27/12:30am 13.7 10.9 9.9 78 2.0 E 15 19 8 10 1017.0 1016.9 0.0
27/12:00am 14.4 12.1 9.0 70 2.7 ENE 11 19 6 10 1017.0 1016.9 0.0
 
Date/Time
EDT
Temp
°C
App
Temp
°C
Dew
Point
Rel
Hum
%
Delta-T
°C
Wind Press
QNH
hPa
Press
MSL
hPa
Rain
since 9 am
mm
Dir
 
Spd
km/h
Gust
km/h
Spd
kts
Gust
kts
26/11:30pm 13.9 12.4 8.5 70 2.7 ENE 6 9 3 5 1017.0 1016.9 0.0
26/11:00pm 14.2 13.1 8.4 68 2.9 ENE 4 6 2 3 1017.2 1017.1 0.0
26/10:30pm 14.3 11.9 8.5 68 2.9 ENE 11 17 6 9 1017.1 1017.0 0.0
26/10:00pm 14.3 12.3 8.5 68 2.9 E 9 15 5 8 1017.2 1017.1 0.0
26/09:30pm 14.3 11.5 8.5 68 2.9 E 13 17 7 9 1017.0 1016.9 0.0
26/09:00pm 14.0 11.2 8.4 69 2.8 E 13 19 7 10 1016.6 1016.5 0.0
26/08:30pm 14.1 10.9 8.5 69 2.8 E 15 19 8 10 1016.3 1016.2 0.0
26/08:00pm 14.3 10.7 8.5 68 2.9 E 17 20 9 11 1015.9 1015.8 0.0
26/07:30pm 14.5 11.3 8.5 67 3.0 E 15 19 8 10 1015.4 1015.3 0.0
26/07:00pm 14.4 11.2 8.6 68 2.9 E 15 20 8 11 1015.3 1015.2 0.0
26/06:30pm 14.5 11.3 8.5 67 3.0 E 15 24 8 13 1014.9 1014.8 0.0
26/06:00pm 14.6 10.5 8.8 68 2.9 E 20 26 11 14 1014.4 1014.3 0.0
26/05:30pm 15.1 10.6 8.6 65 3.3 ESE 22 35 12 19 1013.8 1013.7 0.0
26/05:00pm 17.1 11.3 8.0 55 4.6 S 28 33 15 18 1013.6 1013.5 0.0
26/04:30pm 17.4 10.8 7.7 53 4.9 S 32 41 17 22 1013.5 1013.4 0.0
26/04:00pm 17.0 10.6 7.1 52 4.9 S 30 33 16 18 1013.2 1013.1 0.0
26/03:30pm 17.8 12.3 7.5 51 5.2 S 26 33 14 18 1013.1 1013.0 0.0
26/03:00pm 17.5 12.2 7.0 50 5.2 S 24 30 13 16 1013.1 1013.0 0.0
26/02:30pm 17.0 12.6 7.6 54 4.7 S 20 26 11 14 1013.1 1013.0 0.0
26/02:00pm 16.6 10.8 8.1 57 4.3 S 28 37 15 20 1013.0 1012.9 0.0
26/01:30pm 17.2 12.1 7.5 53 4.9 SW 24 35 13 19 1013.1 1013.0 0.0
26/01:13pm 18.0 11.3 3.5 38 6.8 SW 28 46 15 25 1013.0 1012.9 0.0
26/01:00pm 17.4 9.7 3.3 39 6.5 WSW 33 44 18 24 1012.8 1012.7 0.0
26/12:30pm 17.7 11.4 5.6 45 5.9 WSW 28 37 15 20 1012.8 1012.7 0.0
26/12:00pm 16.8 11.4 4.5 44 5.8 WSW 22 32 12 17 1012.8 1012.7 0.0
26/11:36am 17.0 10.6 5.0 45 5.7 WSW 28 48 15 26 1012.7 1012.6 0.0
26/11:30am 16.9 9.9 5.8 48 5.4 WSW 32 39 17 21 1012.7 1012.6 0.0
26/11:00am 16.6 11.6 6.4 51 5.0 W 22 30 12 16 1012.8 1012.7 0.0
26/10:30am 15.2 10.7 6.2 55 4.3 W 19 33 10 18 1012.6 1012.5 0.0
26/10:00am 14.9 10.0 5.1 52 4.6 WSW 20 26 11 14 1012.3 1012.2 0.0
26/09:30am 14.3 9.4 5.1 54 4.3 WSW 20 28 11 15 1012.1 1012.0 0.0
26/09:00am 14.0 8.3 4.9 54 4.2 W 24 35 13 19 1011.8 1011.7 2.8
26/08:30am 13.2 7.9 4.9 57 3.8 W 22 32 12 17 1011.5 1011.4 2.8
26/08:00am 12.6 7.9 5.3 61 3.4 W 19 26 10 14 1011.2 1011.1 2.8
26/07:30am 11.8 5.4 5.4 65 3.0 W 28 33 15 18 1010.5 1010.4 2.8
26/07:00am 10.8 7.1 4.7 66 2.8 WNW 13 19 7 10 1010.2 1010.1 2.8
26/06:30am 10.5 5.8 5.1 69 2.5 WNW 19 22 10 12 1009.7 1009.6 2.8
26/06:00am 10.6 5.8 4.7 67 2.7 NW 19 24 10 13 1009.0 1008.9 2.8
26/05:30am 10.6 5.7 4.1 64 2.9 NNW 19 28 10 15 1008.5 1008.4 2.8
26/05:00am 10.8 4.7 4.7 66 2.8 WNW 26 35 14 19 1007.9 1007.8 2.8
26/04:30am 10.6 4.5 4.9 68 2.6 WNW 26 30 14 16 1007.2 1007.1 2.8
26/04:00am 10.5 5.5 4.4 66 2.7 WNW 20 28 11 15 1007.1 1007.0 2.8
26/03:30am 10.7 5.2 4.0 63 3.0 WNW 22 28 12 15 1007.0 1006.9 2.8
26/03:00am 10.4 5.3 4.1 65 2.8 WNW 20 30 11 16 1006.9 1006.8 2.8
26/02:30am 10.4 4.5 3.9 64 2.9 WNW 24 32 13 17 1006.5 1006.4 2.8
26/02:00am 10.7 5.3 4.4 65 2.8 WNW 22 28 12 15 1006.0 1005.9 2.8
26/01:30am 10.3 5.3 3.6 63 2.9 WNW 19 24 10 13 1006.2 1006.1 2.8
26/01:00am 10.4 5.5 4.1 65 2.8 WNW 19 24 10 13 1006.1 1006.0 2.8
26/12:30am 10.4 5.8 3.9 64 2.9 WNW 17 22 9 12 1006.0 1005.9 2.8
26/12:00am 10.6 6.1 4.1 64 2.9 WNW 17 24 9 13 1005.7 1005.6 2.8
 
Date/Time
EDT
Temp
°C
App
Temp
°C
Dew
Point
Rel
Hum
%
Delta-T
°C
Wind Press
QNH
hPa
Press
MSL
hPa
Rain
since 9 am
mm
Dir
 
Spd
km/h
Gust
km/h
Spd
kts
Gust
kts
25/11:30pm 10.7 5.9 4.4 65 2.8 WNW 19 26 10 14 1005.6 1005.5 2.8
25/11:00pm 10.9 6.1 4.6 65 2.9 W 19 30 10 16 1005.4 1005.3 2.8
25/10:30pm 11.4 7.3 4.6 63 3.1 W 15 20 8 11 1005.0 1004.9 2.8
25/10:00pm 12.1 5.6 4.8 61 3.4 W 28 39 15 21 1004.4 1004.3 2.8
25/09:53pm 12.2 5.6 4.4 59 3.5 W 28 39 15 21 1004.3 1004.2 2.8
25/09:30pm 12.1 8.3 3.9 57 3.7 W 13 19 7 10 1004.3 1004.2 2.8
25/09:00pm 12.4 7.5 3.9 56 3.8 W 19 26 10 14 1003.8 1003.7 2.8
25/08:30pm 12.6 5.9 3.8 55 4.0 W 28 35 15 19 1003.3 1003.2 2.8
25/08:00pm 13.4 5.4 4.0 53 4.3 W 35 50 19 27 1002.6 1002.5 2.8
25/07:43pm 14.0 6.6 4.0 51 4.6 W 32 52 17 28 1002.2 1002.1 2.8
25/07:30pm 14.3 6.3 3.7 49 4.8 WSW 35 43 19 23 1001.9 1001.8 2.8
25/07:00pm 14.4 6.4 3.8 49 4.9 WSW 35 52 19 28 1001.2 1001.1 2.8
25/06:58pm 14.6 7.4 5.1 53 4.5 WSW 32 52 17 28 1001.3 1001.2 2.8
25/06:30pm 15.1 6.9 4.5 49 4.9 W 37 48 20 26 1000.9 1000.8 2.8
25/06:10pm 16.2 8.6 3.9 44 5.7 W 33 57 18 31 1000.4 1000.3 2.8
25/06:00pm 15.5 8.4 5.4 51 4.8 WNW 32 39 17 21 1000.4 1000.3 2.8
25/05:30pm 15.4 9.9 5.9 53 4.6 W 24 35 13 19 1000.0 999.9 2.8
25/05:00pm 14.1 7.5 8.5 69 2.8 SSW 33 41 18 22 999.4 999.3 2.8
25/04:30pm 14.6 5.5 8.3 66 3.2 SSW 46 59 25 32 999.3 999.2 2.8
25/04:25pm 14.7 6.9 8.4 66 3.2 SW 39 59 21 32 998.9 998.9 2.8
25/04:24pm 14.9 7.5 8.2 64 3.4 SW 37 57 20 31 998.9 998.9 2.8
25/04:00pm 14.8 8.0 7.8 63 3.5 S 33 39 18 21 998.6 998.6 2.8
25/03:42pm 15.3 8.7 7.8 61 3.7 SSW 32 44 17 24 998.4 998.4 2.8
25/03:30pm 18.2 14.1 6.4 46 5.8 WSW 17 35 9 19 998.5 998.5 2.8
25/03:00pm 16.6 13.9 8.8 60 4.0 S 13 19 7 10 998.7 998.7 2.8
25/02:30pm 15.7 13.6 9.6 67 3.2 S 11 17 6 9 998.6 998.6 2.8
25/02:00pm 14.6 12.3 9.0 69 2.9 SSE 11 17 6 9 998.7 998.7 2.8
25/01:30pm 14.6 8.4 10.0 74 2.4 SSW 33 44 18 24 998.7 998.7 2.8
25/01:00pm 15.9 12.5 9.1 64 3.5 SW 17 26 9 14 998.3 998.3 2.8
25/12:30pm 15.8 14.2 8.1 60 3.9 SSW 6 19 3 10 998.4 998.4 2.8
25/12:00pm 15.2 11.6 8.4 64 3.5 SW 17 24 9 13 998.5 998.5 2.8
25/11:30am 14.4 11.3 9.0 70 2.7 SSW 15 20 8 11 998.6 998.6 2.8
25/11:00am 13.4 9.9 10.2 81 1.7 SSW 19 24 10 13 998.3 998.3 2.8
25/10:30am 13.3 8.8 9.9 80 1.7 WSW 24 33 13 18 998.0 998.0 2.8
25/10:28am 13.4 9.8 10.4 82 1.6 WSW 20 33 11 18 997.9 997.9 2.8
25/10:00am 12.6 11.4 9.6 82 1.5 SSW 6 7 3 4 997.6 997.6 2.6
25/09:30am 13.3 9.8 10.3 82 1.6 W 19 28 10 15 998.4 998.4 0.6
25/09:00am 13.4 10.7 10.4 82 1.6 WSW 15 20 8 11 998.1 998.1 3.6
25/08:30am 13.1 9.6 11.0 87 1.1 SW 20 30 11 16 998.0 998.0 3.0
25/08:00am 14.0 9.0 12.2 89 1.0 SSW 30 35 16 19 997.6 997.6 1.2

Other Formats:

Comma delimited format used in spreadsheet applications
http://www.bom.gov.au/fwo/IDT60801/IDT60801.95988.axf

JavaScript Object Notation format (JSON) in row-major order
http://www.bom.gov.au/fwo/IDT60801/IDT60801.95988.json